Terminal Aerodrome Forecast
Issued by NWS

Home | Current Version | Previous Version | Text Only | Print | Product List | Glossary On
Versions: 1 2 3 4 5 6 7 8 9 10 11 12 13 14 15 16 17 18 19 20 21 22 23 24 25 26 27 28 29 30 31 32
447
FTAK31 PAFA 232336
TAFASC
TAF
PASC 232336Z 2400/2424 06018KT 6SM BR OVC008
     FM240800 07018KT 5SM BR OVC004
     FM241200 07015KT 1/2SM FG OVC004
     FM241800 08012KT P6SM OVC005=

USA.gov is the U.S. government's official web portal to all federal, state and local government web resources and services.